Owen Sound, Canada
Current Conditions -  °F | °C
As of 2:00 PM on Thursday 23 Oct 2014 (Local Time) from CYVV Reporting Station
Few Clouds Few Clouds  
Wind Chill: 13°   Ceiling: Unl
Heat Index: 13°   Visibility: 15mi
Dew Point:   Wind: 8mph
Humidity: 63%   Direction: 260°W
Pressure: 30.16"   Gusts: NA
Location:  44.56°N, 80.94°W
Report Text: CYVV 231800Z 26007KT 15SM FEW028 13/06 A3016 RMK CU1 SLP218
Loading
Personal Weather Stations






























Interactive Weather Map
Tropical Storm Tracking
New forecast layout! Learn more

10-Day Weather Forecast

Advertisements
Track Severe Weather on mobile